Time;durP1;ratioP1;P1;durP2;ratioP2;P2;SDS_P1;SDS_P2;PMS_P1;PMS_P2;Temp;Humidity;BMP_temperature;BMP_pressure;BME280_temperature;BME280_humidity;BME280_pressure;Samples;Min_cycle;Max_cycle;Signal;HPM_P1;HPM_P2
2023/11/03 00:00:40;;;;;;;3.15;1.10;;;4.00;99.90;;;;;;2094954;28;20333;-69
2023/11/03 00:01:45;;;;;;;2.90;1.20;;;4.00;99.90;;;;;;2089128;28;20257;-69
2023/11/03 00:02:46;;;;;;;1.67;1.00;;;4.00;99.90;;;;;;2090489;28;20231;-71
2023/11/03 00:03:46;;;;;;;3.00;1.17;;;4.10;99.90;;;;;;2094980;28;20235;-69
2023/11/03 00:04:47;;;;;;;2.53;0.80;;;4.10;99.90;;;;;;2085767;28;20246;-70
2023/11/03 00:05:48;;;;;;;3.93;1.00;;;4.00;99.90;;;;;;2092210;28;20226;-70
2023/11/03 00:06:49;;;;;;;3.77;0.80;;;4.10;99.90;;;;;;2098704;28;20253;-70
2023/11/03 00:07:49;;;;;;;2.50;1.02;;;4.10;99.90;;;;;;2088790;28;20227;-70
2023/11/03 00:08:50;;;;;;;3.40;1.00;;;4.10;99.90;;;;;;2095240;28;20251;-70
2023/11/03 00:09:51;;;;;;;4.60;1.20;;;4.00;99.90;;;;;;2095416;28;20219;-70
2023/11/03 00:10:54;;;;;;;1.50;0.80;;;4.00;99.90;;;;;;2098567;28;20275;-69
2023/11/03 00:11:55;;;;;;;3.10;0.93;;;3.90;99.90;;;;;;2097986;28;20313;-70
2023/11/03 00:12:56;;;;;;;3.70;0.90;;;3.90;99.90;;;;;;2089502;28;20234;-70
2023/11/03 00:13:57;;;;;;;3.10;1.00;;;3.90;99.90;;;;;;2089431;28;20480;-70
2023/11/03 00:14:57;;;;;;;2.83;1.00;;;3.80;99.90;;;;;;2089396;28;20505;-70
2023/11/03 00:15:58;;;;;;;3.00;1.33;;;3.80;99.90;;;;;;2088742;28;20292;-69
2023/11/03 00:16:59;;;;;;;3.67;0.90;;;3.80;99.90;;;;;;2088898;28;20231;-69
2023/11/03 00:18:00;;;;;;;2.00;0.80;;;3.90;99.90;;;;;;2086273;28;20270;-71
2023/11/03 00:19:04;;;;;;;2.57;0.90;;;3.90;99.90;;;;;;2086981;28;20294;-69
2023/11/03 00:20:07;;;;;;;3.78;0.77;;;3.90;99.90;;;;;;2098387;28;20269;-67
2023/11/03 00:21:08;;;;;;;1.75;0.70;;;3.90;99.90;;;;;;2090984;28;20244;-70
2023/11/03 00:22:10;;;;;;;3.43;0.80;;;3.90;99.90;;;;;;2098079;28;20241;-71
2023/11/03 00:23:11;;;;;;;3.28;1.10;;;4.00;99.90;;;;;;2097295;28;20271;-71
2023/11/03 00:24:12;;;;;;;7.17;0.90;;;4.10;99.90;;;;;;2088834;28;20708;-71
2023/11/03 00:25:16;;;;;;;2.47;0.70;;;4.00;99.90;;;;;;2088502;28;20218;-71
2023/11/03 00:26:17;;;;;;;0.95;0.68;;;4.00;99.90;;;;;;2088398;28;21203;-70
2023/11/03 00:27:17;;;;;;;1.00;0.90;;;4.00;99.90;;;;;;2095740;28;20196;-71
2023/11/03 00:28:18;;;;;;;3.70;1.37;;;4.00;99.90;;;;;;2096614;28;20681;-70
2023/11/03 00:29:18;;;;;;;1.03;0.67;;;4.00;99.90;;;;;;2086576;28;21717;-71
2023/11/03 00:30:19;;;;;;;5.87;1.10;;;4.00;99.90;;;;;;2083097;28;20236;-71
2023/11/03 00:31:20;;;;;;;2.37;1.23;;;4.10;99.90;;;;;;2094511;28;20246;-71
2023/11/03 00:32:21;;;;;;;2.77;1.07;;;4.10;99.90;;;;;;2098425;28;20237;-71
2023/11/03 00:33:21;;;;;;;3.00;1.02;;;4.10;99.90;;;;;;2094625;28;20230;-69
2023/11/03 00:34:22;;;;;;;3.43;1.20;;;4.20;99.90;;;;;;2089623;28;20396;-69
2023/11/03 00:35:23;;;;;;;1.60;0.80;;;4.30;99.90;;;;;;2089688;28;20402;-71
2023/11/03 00:36:23;;;;;;;2.63;0.80;;;4.30;99.90;;;;;;2087847;28;20235;-70
2023/11/03 00:37:25;;;;;;;2.23;0.70;;;4.20;99.90;;;;;;2094161;28;20252;-70
2023/11/03 00:38:25;;;;;;;2.92;0.80;;;4.20;99.90;;;;;;2089260;28;20666;-70
2023/11/03 00:39:26;;;;;;;3.07;0.90;;;4.20;99.90;;;;;;2090484;28;20243;-70
2023/11/03 00:40:26;;;;;;;2.97;0.90;;;4.10;99.90;;;;;;2090490;28;20228;-69
2023/11/03 00:41:29;;;;;;;6.47;1.00;;;4.10;99.90;;;;;;2095710;28;20232;-70
2023/11/03 00:42:30;;;;;;;2.53;0.90;;;4.10;99.90;;;;;;2088191;28;20224;-70
2023/11/03 00:43:30;;;;;;;4.93;1.20;;;4.10;99.90;;;;;;2088799;28;20230;-69
2023/11/03 00:44:32;;;;;;;4.30;0.80;;;4.20;99.90;;;;;;2103149;28;20768;-69
2023/11/03 00:45:33;;;;;;;3.35;0.90;;;4.20;99.90;;;;;;2096990;28;20245;-69
2023/11/03 00:46:35;;;;;;;5.47;0.95;;;4.20;99.90;;;;;;2092374;28;20231;-70
2023/11/03 00:47:36;;;;;;;3.00;0.80;;;4.20;99.90;;;;;;2096350;28;20231;-70
2023/11/03 00:48:36;;;;;;;3.53;0.73;;;4.20;99.90;;;;;;2095808;28;20333;-69
2023/11/03 00:49:37;;;;;;;5.33;1.23;;;4.20;99.90;;;;;;2090091;28;20685;-70
2023/11/03 00:50:38;;;;;;;3.43;0.90;;;4.10;99.90;;;;;;2091207;28;20720;-69
2023/11/03 00:51:39;;;;;;;3.77;1.50;;;4.20;99.90;;;;;;2089220;28;20236;-70
2023/11/03 00:52:40;;;;;;;1.52;0.93;;;4.20;99.90;;;;;;2083683;28;20473;-70
2023/11/03 00:53:41;;;;;;;3.10;1.07;;;4.10;99.90;;;;;;2079623;28;20235;-70
2023/11/03 00:54:41;;;;;;;1.30;1.20;;;4.10;99.90;;;;;;2090789;28;20235;-69
2023/11/03 00:55:42;;;;;;;1.03;0.80;;;4.20;99.90;;;;;;2091930;28;20243;-69
2023/11/03 00:56:43;;;;;;;3.05;0.80;;;4.20;99.90;;;;;;2091659;28;20637;-69
2023/11/03 00:57:43;;;;;;;2.50;1.00;;;4.00;99.90;;;;;;2091120;28;20231;-69
2023/11/03 00:58:45;;;;;;;2.40;0.80;;;4.00;99.90;;;;;;2090657;28;20231;-69
2023/11/03 00:59:46;;;;;;;2.30;0.82;;;4.00;99.90;;;;;;2089725;28;20235;-69
2023/11/03 01:00:48;;;;;;;2.45;1.00;;;3.90;99.90;;;;;;2089998;28;20231;-69
2023/11/03 01:01:48;;;;;;;3.63;1.27;;;3.90;99.90;;;;;;2089430;28;20732;-69
2023/11/03 01:02:49;;;;;;;4.10;1.13;;;4.00;99.90;;;;;;2088900;28;20320;-69
2023/11/03 01:03:52;;;;;;;2.33;0.90;;;4.00;99.90;;;;;;2091973;28;20219;-69
2023/11/03 01:04:53;;;;;;;1.77;1.00;;;4.00;99.90;;;;;;2091371;28;20299;-69
2023/11/03 01:05:54;;;;;;;2.43;0.97;;;4.10;99.90;;;;;;2090940;28;20223;-69
2023/11/03 01:06:55;;;;;;;1.60;0.70;;;4.10;99.90;;;;;;2098396;28;20233;-70
2023/11/03 01:07:55;;;;;;;4.07;0.80;;;4.10;99.90;;;;;;2097977;28;20238;-70
2023/11/03 01:08:57;;;;;;;1.00;0.70;;;4.10;99.90;;;;;;2091285;28;20274;-70
2023/11/03 01:09:57;;;;;;;3.55;0.70;;;4.30;99.90;;;;;;2095867;28;20720;-69
2023/11/03 01:10:58;;;;;;;2.00;0.83;;;4.20;99.90;;;;;;2096242;28;20223;-70
2023/11/03 01:11:59;;;;;;;1.80;0.90;;;4.10;99.90;;;;;;2091516;28;20274;-69
2023/11/03 01:12:59;;;;;;;2.03;1.10;;;4.10;99.90;;;;;;2090689;28;20216;-71
2023/11/03 01:14:00;;;;;;;4.97;1.00;;;4.30;99.90;;;;;;2083812;28;20230;-70
2023/11/03 01:15:05;;;;;;;5.57;1.03;;;4.30;99.90;;;;;;2094298;28;20188;-70
2023/11/03 01:16:10;;;;;;;1.23;0.88;;;4.30;99.90;;;;;;2093135;28;20182;-68
2023/11/03 01:17:10;;;;;;;2.55;0.90;;;4.30;99.90;;;;;;2089990;28;20238;-70
2023/11/03 01:18:11;;;;;;;5.73;1.20;;;4.30;99.90;;;;;;2089640;28;20177;-69
2023/11/03 01:19:12;;;;;;;1.47;0.70;;;4.40;99.90;;;;;;2089242;28;20196;-70
2023/11/03 01:20:19;;;;;;;2.70;0.90;;;4.40;99.90;;;;;;2088486;28;20180;-70
2023/11/03 01:21:22;;;;;;;1.65;0.80;;;4.40;99.90;;;;;;2089705;28;20647;-69
2023/11/03 01:22:22;;;;;;;1.77;0.77;;;4.40;99.90;;;;;;2088573;28;20231;-70
2023/11/03 01:23:23;;;;;;;1.03;0.60;;;4.40;99.90;;;;;;2089516;28;20228;-69
2023/11/03 01:24:25;;;;;;;2.50;0.80;;;4.30;99.90;;;;;;2089110;28;20235;-69
2023/11/03 01:25:28;;;;;;;2.00;0.90;;;4.40;99.90;;;;;;2089209;28;20223;-70
2023/11/03 01:26:29;;;;;;;1.02;0.63;;;4.40;99.90;;;;;;2089493;28;20272;-69
2023/11/03 01:27:29;;;;;;;1.37;1.07;;;4.50;99.90;;;;;;2096388;28;20265;-69
2023/11/03 01:28:33;;;;;;;2.50;1.30;;;4.50;99.90;;;;;;2091717;28;20670;-70
2023/11/03 01:29:33;;;;;;;1.45;0.82;;;4.50;99.90;;;;;;2089800;28;20608;-69
2023/11/03 01:30:34;;;;;;;2.10;1.00;;;4.40;99.90;;;;;;2095245;28;20314;-70
2023/11/03 01:31:36;;;;;;;4.13;1.00;;;4.40;99.90;;;;;;2093367;28;20289;-69
2023/11/03 01:32:37;;;;;;;2.90;1.00;;;4.40;99.90;;;;;;2096968;28;20249;-69
2023/11/03 01:33:41;;;;;;;2.90;1.17;;;4.40;99.90;;;;;;2089364;28;20239;-69
2023/11/03 01:34:42;;;;;;;3.63;0.82;;;4.40;99.90;;;;;;2089132;28;20295;-70
2023/11/03 01:35:42;;;;;;;1.90;1.00;;;4.40;99.90;;;;;;2089303;28;20713;-69
2023/11/03 01:36:43;;;;;;;3.90;1.10;;;4.30;99.90;;;;;;2089729;28;20274;-70
2023/11/03 01:37:45;;;;;;;4.33;0.83;;;4.30;99.90;;;;;;2091653;28;20639;-69
2023/11/03 01:38:48;;;;;;;2.85;0.95;;;4.40;99.90;;;;;;2091760;28;20235;-70
2023/11/03 01:39:50;;;;;;;1.80;0.98;;;4.40;99.90;;;;;;2091404;28;20263;-69
2023/11/03 01:40:51;;;;;;;2.00;0.82;;;4.40;99.90;;;;;;2090276;28;20223;-70
2023/11/03 01:41:52;;;;;;;5.03;1.13;;;4.50;99.90;;;;;;2091008;28;20697;-69
2023/11/03 01:42:53;;;;;;;1.13;0.70;;;4.40;99.90;;;;;;2092298;28;20302;-70
2023/11/03 01:44:20;;;;;;;3.60;1.00;;;4.40;99.90;;;;;;2090384;28;20231;-69
2023/11/03 01:45:20;;;;;;;4.90;1.15;;;4.40;99.90;;;;;;2089317;28;20236;-70
2023/11/03 01:46:21;;;;;;;2.83;0.90;;;4.40;99.90;;;;;;2088125;28;20235;-70
2023/11/03 01:47:22;;;;;;;1.53;1.10;;;4.40;99.90;;;;;;2091930;28;20322;-70
2023/11/03 01:48:24;;;;;;;2.73;1.07;;;4.50;99.90;;;;;;2091853;28;20581;-70
2023/11/03 01:49:25;;;;;;;1.65;0.93;;;4.50;99.90;;;;;;2095560;28;20758;-70
2023/11/03 01:50:27;;;;;;;5.97;1.00;;;4.40;99.90;;;;;;2095962;28;20300;-69
2023/11/03 01:51:27;;;;;;;2.70;0.93;;;4.40;99.90;;;;;;2090087;28;20224;-70
2023/11/03 01:52:29;;;;;;;2.60;1.57;;;4.40;99.90;;;;;;2088294;28;20661;-69
2023/11/03 01:53:32;;;;;;;2.00;1.20;;;4.40;99.90;;;;;;2087179;28;20224;-70
2023/11/03 01:54:32;;;;;;;2.03;0.90;;;4.40;99.90;;;;;;2095475;28;20223;-69
2023/11/03 01:55:33;;;;;;;2.07;1.00;;;4.30;99.90;;;;;;2089720;28;20516;-70
2023/11/03 01:56:36;;;;;;;2.63;0.70;;;4.30;99.90;;;;;;2095615;28;20342;-69
2023/11/03 01:57:38;;;;;;;1.92;0.80;;;4.40;99.90;;;;;;2095774;28;20318;-69
2023/11/03 01:58:38;;;;;;;1.83;0.88;;;4.40;99.90;;;;;;2090908;28;20239;-69
2023/11/03 01:59:39;;;;;;;2.20;0.77;;;4.30;99.90;;;;;;2089104;28;20569;-69
2023/11/03 02:00:40;;;;;;;2.93;0.90;;;4.40;99.90;;;;;;2089128;28;20624;-70
2023/11/03 02:01:44;;;;;;;1.53;0.87;;;4.40;99.90;;;;;;2088719;28;20220;-70
2023/11/03 02:02:46;;;;;;;1.20;1.10;;;4.40;99.90;;;;;;2095861;28;20574;-69
2023/11/03 02:03:48;;;;;;;3.42;1.10;;;4.40;99.90;;;;;;2094842;28;20283;-69
2023/11/03 02:04:49;;;;;;;2.30;1.02;;;4.50;99.90;;;;;;2091679;28;20288;-70
2023/11/03 02:05:50;;;;;;;3.58;1.25;;;4.50;99.90;;;;;;2091076;28;20226;-70
2023/11/03 02:06:50;;;;;;;3.80;0.87;;;4.50;99.90;;;;;;2097210;28;20320;-70
2023/11/03 02:07:51;;;;;;;2.97;0.60;;;4.60;99.90;;;;;;2088727;28;20250;-70
2023/11/03 02:08:52;;;;;;;1.77;0.90;;;4.60;99.90;;;;;;2088814;28;20231;-69
2023/11/03 02:09:53;;;;;;;1.70;0.77;;;4.70;99.90;;;;;;2089018;28;20480;-70
2023/11/03 02:10:54;;;;;;;2.77;0.90;;;4.70;99.90;;;;;;2096717;28;20740;-69
2023/11/03 02:11:54;;;;;;;1.80;0.83;;;4.70;99.90;;;;;;2095177;28;20223;-69
2023/11/03 02:12:55;;;;;;;1.73;0.90;;;4.70;99.90;;;;;;2087848;28;20254;-69
2023/11/03 02:13:56;;;;;;;1.00;0.90;;;4.70;99.90;;;;;;2090395;28;20632;-69
2023/11/03 02:14:57;;;;;;;3.10;1.10;;;4.70;99.90;;;;;;2081830;28;20228;-70
2023/11/03 02:15:58;;;;;;;1.87;0.80;;;4.80;99.90;;;;;;2081221;28;20326;-69
2023/11/03 02:17:00;;;;;;;3.00;0.70;;;4.80;99.90;;;;;;2089811;28;20800;-69
2023/11/03 02:18:01;;;;;;;1.40;0.70;;;4.80;99.90;;;;;;2089320;28;20646;-70
2023/11/03 02:19:11;;;;;;;2.73;0.93;;;4.70;99.90;;;;;;2089404;28;20212;-69
2023/11/03 02:20:11;;;;;;;0.82;0.70;;;4.80;99.90;;;;;;2088480;28;20555;-69
2023/11/03 02:21:13;;;;;;;3.13;0.73;;;4.80;99.90;;;;;;2088523;28;20188;-69
2023/11/03 02:22:13;;;;;;;2.03;1.08;;;4.90;99.90;;;;;;2087926;28;20215;-69
2023/11/03 02:23:14;;;;;;;3.53;0.90;;;4.80;99.90;;;;;;2090892;28;20199;-70
2023/11/03 02:24:14;;;;;;;3.17;0.80;;;4.80;99.90;;;;;;2090522;28;20257;-70
2023/11/03 02:25:15;;;;;;;1.03;0.83;;;4.80;99.90;;;;;;2089895;28;20187;-68
2023/11/03 02:26:15;;;;;;;4.80;0.93;;;4.80;99.90;;;;;;2088599;28;20268;-68
2023/11/03 02:27:16;;;;;;;4.30;1.00;;;4.80;99.90;;;;;;2079989;28;20189;-68
2023/11/03 02:28:17;;;;;;;1.13;0.80;;;4.90;99.90;;;;;;2086676;28;20275;-68
2023/11/03 02:29:21;;;;;;;1.20;0.80;;;4.90;99.90;;;;;;2079830;28;20216;-68
2023/11/03 02:30:21;;;;;;;4.05;0.80;;;4.90;99.90;;;;;;2086355;28;20243;-68
2023/11/03 02:31:22;;;;;;;1.07;0.90;;;5.00;99.90;;;;;;2091792;28;20576;-68
2023/11/03 02:32:23;;;;;;;3.07;0.90;;;5.00;99.90;;;;;;2091064;28;20220;-69
2023/11/03 02:33:24;;;;;;;1.30;0.80;;;5.00;99.90;;;;;;2090371;28;20311;-69
2023/11/03 02:34:25;;;;;;;4.15;1.10;;;5.00;99.90;;;;;;2090499;28;20227;-69
2023/11/03 02:35:25;;;;;;;1.80;0.80;;;5.00;99.90;;;;;;2092171;28;20745;-69
2023/11/03 02:36:26;;;;;;;2.80;1.50;;;5.10;99.90;;;;;;2088493;28;20305;-69
2023/11/03 02:37:26;;;;;;;2.50;0.77;;;5.10;99.90;;;;;;2088450;28;20228;-69
2023/11/03 02:38:27;;;;;;;0.80;0.70;;;5.10;99.90;;;;;;2087546;28;20365;-68
2023/11/03 02:39:28;;;;;;;2.67;0.90;;;5.20;99.90;;;;;;2087820;28;20285;-68
2023/11/03 02:40:28;;;;;;;0.97;0.60;;;5.10;99.90;;;;;;2091286;28;20637;-68
2023/11/03 02:41:29;;;;;;;1.10;0.97;;;5.10;99.90;;;;;;2090706;28;20721;-68
2023/11/03 02:42:30;;;;;;;1.77;0.80;;;5.10;99.90;;;;;;2095050;28;20229;-68
2023/11/03 02:43:30;;;;;;;1.20;0.70;;;5.20;99.90;;;;;;2086782;28;20231;-68
2023/11/03 02:44:32;;;;;;;6.07;0.97;;;5.20;99.90;;;;;;2094322;28;20239;-69
2023/11/03 02:45:33;;;;;;;2.47;1.13;;;5.00;99.90;;;;;;2086607;28;20231;-68
2023/11/03 02:46:34;;;;;;;3.83;1.07;;;5.00;99.90;;;;;;2098979;28;20604;-68
2023/11/03 02:47:34;;;;;;;1.20;0.73;;;5.00;99.90;;;;;;2091257;28;20235;-68
2023/11/03 02:48:35;;;;;;;3.47;1.00;;;5.00;99.90;;;;;;2089022;28;20236;-68
2023/11/03 02:49:36;;;;;;;1.83;0.70;;;5.00;99.90;;;;;;2090901;28;20825;-69
2023/11/03 02:50:36;;;;;;;2.57;0.90;;;5.00;99.90;;;;;;2089961;28;20369;-68
2023/11/03 02:51:37;;;;;;;2.70;1.17;;;5.10;99.90;;;;;;2089343;28;20232;-69
2023/11/03 02:52:38;;;;;;;2.33;0.80;;;5.10;99.90;;;;;;2086533;28;20259;-69
2023/11/03 02:53:39;;;;;;;2.17;1.03;;;5.10;99.90;;;;;;2095354;28;20234;-69
2023/11/03 02:54:40;;;;;;;1.75;0.80;;;5.00;99.90;;;;;;2096215;28;20230;-69
2023/11/03 02:55:40;;;;;;;1.80;0.60;;;5.00;99.90;;;;;;2094962;28;20290;-69
2023/11/03 02:56:41;;;;;;;0.97;0.77;;;4.90;99.90;;;;;;2087762;28;20224;-69
2023/11/03 02:57:41;;;;;;;3.40;0.97;;;5.00;99.90;;;;;;2090155;28;20231;-69
2023/11/03 02:58:42;;;;;;;1.27;0.80;;;5.00;99.90;;;;;;2090752;28;20239;-69
2023/11/03 02:59:44;;;;;;;1.17;0.83;;;5.00;99.90;;;;;;2093341;28;20285;-69
2023/11/03 03:00:44;;;;;;;1.83;0.75;;;4.90;99.90;;;;;;2088843;28;20231;-69
2023/11/03 03:01:46;;;;;;;3.60;1.10;;;5.00;99.90;;;;;;2089134;28;20719;-69
2023/11/03 03:02:47;;;;;;;1.35;0.68;;;5.00;99.90;;;;;;2087899;28;20753;-69
2023/11/03 03:03:47;;;;;;;3.10;1.50;;;4.90;99.90;;;;;;2082045;28;20235;-69
2023/11/03 03:04:48;;;;;;;2.13;1.55;;;4.90;99.90;;;;;;2086853;28;20232;-69
2023/11/03 03:05:49;;;;;;;1.43;0.87;;;5.00;99.90;;;;;;2094845;28;20641;-69
2023/11/03 03:06:49;;;;;;;1.27;1.07;;;5.10;99.90;;;;;;2098512;28;20227;-70
2023/11/03 03:07:50;;;;;;;1.80;0.70;;;5.10;99.90;;;;;;2090725;28;20230;-69
2023/11/03 03:08:50;;;;;;;4.77;0.93;;;5.20;99.90;;;;;;2091007;28;20671;-69
2023/11/03 03:09:51;;;;;;;3.53;1.07;;;5.10;99.90;;;;;;2094405;28;20300;-69
2023/11/03 03:10:51;;;;;;;2.20;0.70;;;5.20;99.90;;;;;;2094322;28;20604;-69
2023/11/03 03:11:52;;;;;;;2.43;0.80;;;5.20;99.90;;;;;;2096999;28;20398;-69
2023/11/03 03:12:53;;;;;;;2.03;0.90;;;5.10;99.90;;;;;;2095484;28;20227;-69
2023/11/03 03:13:53;;;;;;;2.53;0.73;;;5.20;99.90;;;;;;2087156;28;20251;-69
2023/11/03 03:14:54;;;;;;;4.13;0.90;;;5.20;99.90;;;;;;2090354;28;20819;-69
2023/11/03 03:15:54;;;;;;;2.67;0.93;;;5.20;99.90;;;;;;2089752;28;20631;-69
2023/11/03 03:16:55;;;;;;;3.43;0.93;;;5.20;99.90;;;;;;2091772;28;20223;-69
2023/11/03 03:17:56;;;;;;;2.87;0.90;;;5.20;99.90;;;;;;2091744;28;20234;-69
2023/11/03 03:18:56;;;;;;;2.90;0.93;;;5.20;99.90;;;;;;2097068;28;20722;-68
2023/11/03 03:19:57;;;;;;;2.10;0.77;;;5.20;99.90;;;;;;2097106;28;20237;-68
2023/11/03 03:20:58;;;;;;;4.10;0.70;;;5.30;99.90;;;;;;2087634;28;20733;-68
2023/11/03 03:21:58;;;;;;;2.90;0.80;;;5.30;99.90;;;;;;2087861;28;20275;-68
2023/11/03 03:22:59;;;;;;;3.17;1.23;;;5.30;99.90;;;;;;2087891;28;20886;-68
2023/11/03 03:23:59;;;;;;;2.87;0.80;;;5.40;99.90;;;;;;2089818;28;20219;-69
2023/11/03 03:25:00;;;;;;;2.77;0.70;;;5.40;99.90;;;;;;2090257;28;20574;-69
2023/11/03 03:26:01;;;;;;;3.13;0.80;;;5.50;99.90;;;;;;2089359;28;20657;-68
2023/11/03 03:27:02;;;;;;;3.13;0.80;;;5.50;99.90;;;;;;2089077;28;20217;-68
2023/11/03 03:28:02;;;;;;;2.97;1.20;;;5.50;99.90;;;;;;2089044;28;20239;-67
2023/11/03 03:29:03;;;;;;;3.10;0.90;;;5.50;99.90;;;;;;2088250;28;20207;-68
2023/11/03 03:30:04;;;;;;;3.70;0.90;;;5.50;99.90;;;;;;2096009;28;20669;-69
2023/11/03 03:31:05;;;;;;;2.58;0.98;;;5.40;99.90;;;;;;2094903;28;20202;-69
2023/11/03 03:32:06;;;;;;;3.23;1.00;;;5.40;99.90;;;;;;2087399;28;20202;-68
2023/11/03 03:33:06;;;;;;;1.87;0.80;;;5.50;99.90;;;;;;2090737;28;20194;-69
2023/11/03 03:34:07;;;;;;;0.87;0.67;;;5.50;99.90;;;;;;2090816;28;20198;-69
2023/11/03 03:35:08;;;;;;;1.40;0.87;;;5.50;99.90;;;;;;2089957;28;20200;-69
2023/11/03 03:36:09;;;;;;;1.03;0.70;;;5.60;99.90;;;;;;2090398;28;20213;-69
2023/11/03 03:37:12;;;;;;;1.87;0.70;;;5.60;99.90;;;;;;2088953;28;20593;-70
2023/11/03 03:38:12;;;;;;;1.48;1.02;;;5.60;99.90;;;;;;2087495;28;20245;-70
2023/11/03 03:39:13;;;;;;;2.33;1.20;;;5.60;99.90;;;;;;2078933;28;20213;-70
2023/11/03 03:40:14;;;;;;;2.83;0.60;;;5.50;99.90;;;;;;2087374;28;20532;-70
2023/11/03 03:41:16;;;;;;;1.45;0.70;;;5.60;99.90;;;;;;2086556;28;20215;-70
2023/11/03 03:42:16;;;;;;;3.33;0.90;;;5.60;99.90;;;;;;2089736;28;20180;-70
2023/11/03 03:43:17;;;;;;;1.17;0.80;;;5.70;99.90;;;;;;2085242;28;20276;-70
2023/11/03 03:44:18;;;;;;;1.93;0.80;;;5.70;99.90;;;;;;2097043;28;20211;-69
2023/11/03 03:45:18;;;;;;;2.20;0.83;;;5.70;99.90;;;;;;2087621;28;20184;-70
2023/11/03 03:46:20;;;;;;;1.27;0.63;;;5.70;99.90;;;;;;2088380;28;20232;-70
2023/11/03 03:47:21;;;;;;;2.25;0.80;;;5.70;99.90;;;;;;2091433;28;20232;-70
2023/11/03 03:48:22;;;;;;;4.10;0.80;;;5.70;99.90;;;;;;2089838;28;20282;-69
2023/11/03 03:49:22;;;;;;;2.07;0.93;;;5.70;99.90;;;;;;2087306;28;20243;-69
2023/11/03 03:50:23;;;;;;;2.00;1.03;;;5.60;99.90;;;;;;2091340;28;20220;-69
2023/11/03 03:51:23;;;;;;;1.67;1.00;;;5.60;99.90;;;;;;2088571;28;20616;-69
2023/11/03 03:52:24;;;;;;;2.50;1.43;;;5.40;99.90;;;;;;2088990;28;20259;-69
2023/11/03 03:53:25;;;;;;;4.67;1.20;;;5.50;99.90;;;;;;2088365;28;20221;-69
2023/11/03 03:54:25;;;;;;;3.83;1.20;;;5.40;99.90;;;;;;2088392;28;20239;-69
2023/11/03 03:55:26;;;;;;;2.90;0.83;;;5.50;99.90;;;;;;2088390;28;20226;-69
2023/11/03 03:56:27;;;;;;;2.23;0.80;;;5.50;99.90;;;;;;2087964;28;20219;-69
2023/11/03 03:57:28;;;;;;;4.10;0.90;;;5.50;99.90;;;;;;2087322;28;20299;-69
2023/11/03 03:58:28;;;;;;;4.67;0.80;;;5.50;99.90;;;;;;2086532;28;20228;-69
2023/11/03 03:59:29;;;;;;;3.40;1.27;;;5.60;99.90;;;;;;2089746;28;20653;-69
2023/11/03 04:00:30;;;;;;;2.00;0.80;;;5.60;99.90;;;;;;2090182;28;20225;-69
2023/11/03 04:01:30;;;;;;;4.30;1.17;;;5.60;99.90;;;;;;2087840;28;20604;-69
2023/11/03 04:02:31;;;;;;;3.30;1.43;;;5.60;99.90;;;;;;2088960;28;20220;-69
2023/11/03 04:03:32;;;;;;;5.70;2.10;;;5.70;99.90;;;;;;2091307;28;20228;-68
2023/11/03 04:04:33;;;;;;;3.03;1.27;;;5.80;99.90;;;;;;2095488;28;20235;-68
2023/11/03 04:05:33;;;;;;;3.77;1.37;;;5.80;99.90;;;;;;2087248;28;20255;-69
2023/11/03 04:06:34;;;;;;;3.60;1.20;;;5.70;99.90;;;;;;2095826;28;20675;-69
2023/11/03 04:07:34;;;;;;;1.80;1.30;;;5.60;99.90;;;;;;2090067;28;20306;-69
2023/11/03 04:08:35;;;;;;;3.67;1.13;;;5.60;99.90;;;;;;2095369;28;20373;-69
2023/11/03 04:09:38;;;;;;;3.50;1.63;;;5.50;99.90;;;;;;2091204;28;20695;-69
2023/11/03 04:10:39;;;;;;;2.00;1.35;;;5.60;99.90;;;;;;2090690;28;20479;-69
2023/11/03 04:11:40;;;;;;;3.17;1.13;;;5.60;99.90;;;;;;2090686;28;20229;-69
2023/11/03 04:12:40;;;;;;;5.00;1.57;;;5.60;99.90;;;;;;2089027;28;20234;-69
2023/11/03 04:13:41;;;;;;;2.67;1.43;;;5.70;99.90;;;;;;2083275;28;20233;-69
2023/11/03 04:14:41;;;;;;;4.73;1.17;;;5.80;99.90;;;;;;2088739;28;20257;-69
2023/11/03 04:15:42;;;;;;;1.83;1.00;;;5.80;99.90;;;;;;2088091;28;20239;-70
2023/11/03 04:16:42;;;;;;;6.33;1.17;;;5.80;99.90;;;;;;2091963;28;20702;-69
2023/11/03 04:17:43;;;;;;;2.30;1.23;;;5.70;99.90;;;;;;2095888;28;20652;-69
2023/11/03 04:18:44;;;;;;;2.27;1.53;;;5.60;99.90;;;;;;2087683;28;20266;-69
2023/11/03 04:19:44;;;;;;;2.40;1.13;;;5.50;99.90;;;;;;2096101;28;20265;-69
2023/11/03 04:20:45;;;;;;;3.27;2.17;;;5.50;99.90;;;;;;2097655;28;20308;-69
2023/11/03 04:21:49;;;;;;;6.10;2.20;;;5.50;99.90;;;;;;2098035;28;20227;-69
2023/11/03 04:22:50;;;;;;;4.03;2.03;;;5.50;99.90;;;;;;2087676;28;20406;-69
2023/11/03 04:23:52;;;;;;;4.63;2.20;;;5.50;99.90;;;;;;2087316;28;20223;-69
2023/11/03 04:24:53;;;;;;;3.50;2.30;;;5.50;99.90;;;;;;2088244;28;20275;-69
2023/11/03 04:25:54;;;;;;;3.65;2.30;;;5.50;99.90;;;;;;2091156;28;20224;-69
2023/11/03 04:26:55;;;;;;;2.80;2.03;;;5.50;99.90;;;;;;2090908;28;20219;-69
2023/11/03 04:27:56;;;;;;;2.85;1.90;;;5.50;99.90;;;;;;2090386;28;20272;-68
2023/11/03 04:28:57;;;;;;;2.03;1.23;;;5.50;99.90;;;;;;2090654;28;20604;-69
2023/11/03 04:29:57;;;;;;;2.33;1.50;;;5.50;99.90;;;;;;2090072;28;20704;-69
2023/11/03 04:30:58;;;;;;;2.60;1.53;;;5.70;99.90;;;;;;2096130;28;20223;-69
2023/11/03 04:31:58;;;;;;;3.87;1.30;;;5.70;99.90;;;;;;2088106;28;20826;-69
2023/11/03 04:32:59;;;;;;;3.43;1.73;;;5.70;99.90;;;;;;2087623;28;20757;-69
2023/11/03 04:34:00;;;;;;;3.73;1.90;;;5.60;99.90;;;;;;2090833;28;20231;-70
2023/11/03 04:35:00;;;;;;;2.80;1.70;;;5.60;99.90;;;;;;2098567;28;20218;-68
2023/11/03 04:36:01;;;;;;;3.57;1.57;;;5.60;99.90;;;;;;2098163;28;20178;-69
2023/11/03 04:37:02;;;;;;;2.90;1.30;;;5.60;99.90;;;;;;2088803;28;20183;-69
2023/11/03 04:38:02;;;;;;;3.87;1.50;;;5.60;99.90;;;;;;2088531;28;20668;-69
2023/11/03 04:39:03;;;;;;;2.53;1.30;;;5.60;99.90;;;;;;2086827;28;20204;-69
2023/11/03 04:40:05;;;;;;;3.07;1.47;;;5.70;99.90;;;;;;2089067;28;20192;-69
2023/11/03 04:41:05;;;;;;;3.45;1.42;;;5.70;99.90;;;;;;2088168;28;20189;-69
2023/11/03 04:42:06;;;;;;;2.67;1.30;;;5.70;99.90;;;;;;2086418;28;20231;-69
2023/11/03 04:43:06;;;;;;;3.70;1.10;;;5.80;99.90;;;;;;2093100;28;20599;-69
2023/11/03 04:44:07;;;;;;;4.73;1.33;;;5.80;99.90;;;;;;2092573;28;20193;-69
2023/11/03 04:45:08;;;;;;;2.17;1.10;;;5.80;99.90;;;;;;2090037;28;20188;-69
2023/11/03 04:46:09;;;;;;;1.27;1.10;;;5.90;99.90;;;;;;2090509;28;20192;-69
2023/11/03 04:47:09;;;;;;;2.27;0.90;;;6.00;99.90;;;;;;2098185;28;20316;-69
2023/11/03 04:48:10;;;;;;;2.33;1.07;;;6.00;99.90;;;;;;2088846;28;20184;-69
2023/11/03 04:49:10;;;;;;;2.73;1.10;;;5.90;99.90;;;;;;2088216;28;20253;-69
2023/11/03 04:50:11;;;;;;;1.20;0.90;;;5.80;99.90;;;;;;2089098;28;20184;-69
2023/11/03 04:51:13;;;;;;;4.43;1.00;;;5.70;99.90;;;;;;2087860;28;20192;-69
2023/11/03 04:52:13;;;;;;;6.38;1.15;;;5.70;99.90;;;;;;2094409;28;20196;-69
2023/11/03 04:53:14;;;;;;;1.20;0.80;;;5.70;99.90;;;;;;2095263;28;20244;-69
2023/11/03 04:54:15;;;;;;;2.90;1.30;;;5.70;99.90;;;;;;2095154;28;20230;-69
2023/11/03 04:55:15;;;;;;;1.70;0.97;;;5.70;99.90;;;;;;2101093;28;20281;-69
2023/11/03 04:56:16;;;;;;;3.50;1.10;;;5.80;99.90;;;;;;2101685;28;20200;-69
2023/11/03 04:57:21;;;;;;;1.70;0.80;;;5.80;99.90;;;;;;2090457;28;20192;-69
2023/11/03 04:58:22;;;;;;;4.78;1.33;;;5.80;99.90;;;;;;2094838;28;20326;-67
2023/11/03 04:59:22;;;;;;;5.17;1.50;;;5.80;99.90;;;;;;2088374;28;20245;-68
2023/11/03 05:00:23;;;;;;;7.70;2.80;;;5.70;99.90;;;;;;2088140;28;20232;-69
2023/11/03 05:01:24;;;;;;;5.80;2.50;;;5.70;99.90;;;;;;2093907;28;20271;-69
2023/11/03 05:02:26;;;;;;;3.50;1.92;;;5.60;99.90;;;;;;2090575;28;20234;-69
2023/11/03 05:03:27;;;;;;;2.67;1.08;;;5.60;99.90;;;;;;2088854;28;20229;-68
2023/11/03 05:04:27;;;;;;;1.80;1.30;;;5.60;99.90;;;;;;2089662;28;20731;-69
2023/11/03 05:05:32;;;;;;;5.30;1.10;;;5.70;99.90;;;;;;2089903;28;20262;-69
2023/11/03 05:06:32;;;;;;;4.65;1.60;;;5.70;99.90;;;;;;2092682;28;20706;-68
2023/11/03 05:07:35;;;;;;;1.53;0.80;;;5.80;99.90;;;;;;2096154;28;20228;-69
2023/11/03 05:08:35;;;;;;;4.22;1.27;;;5.80;99.90;;;;;;2093627;28;20223;-69
2023/11/03 05:09:37;;;;;;;4.00;1.27;;;5.80;99.90;;;;;;2088307;28;20294;-69
2023/11/03 05:10:38;;;;;;;2.58;0.85;;;5.80;99.90;;;;;;2090087;28;20240;-69
2023/11/03 05:11:39;;;;;;;7.85;1.77;;;5.80;99.90;;;;;;2095527;28;20710;-69
2023/11/03 05:12:40;;;;;;;3.60;1.00;;;5.70;99.90;;;;;;2090245;28;20711;-69
2023/11/03 05:13:44;;;;;;;2.23;1.00;;;5.70;99.90;;;;;;2088858;28;20226;-69
2023/11/03 05:14:45;;;;;;;4.10;1.00;;;5.70;99.90;;;;;;2089280;28;20238;-69
2023/11/03 05:15:46;;;;;;;2.27;0.90;;;5.80;99.90;;;;;;2096738;28;20223;-69
2023/11/03 05:16:46;;;;;;;1.47;1.07;;;5.70;99.90;;;;;;2099936;28;20814;-69
2023/11/03 05:17:47;;;;;;;4.13;1.10;;;5.70;99.90;;;;;;2098358;28;20257;-69
2023/11/03 05:18:48;;;;;;;4.33;0.90;;;5.70;99.90;;;;;;2098773;28;20252;-68
2023/11/03 05:19:50;;;;;;;3.30;1.00;;;5.70;99.90;;;;;;2090560;28;20764;-69
2023/11/03 05:20:54;;;;;;;3.60;1.60;;;5.70;99.90;;;;;;2090269;28;20646;-69
2023/11/03 05:21:55;;;;;;;1.30;1.20;;;5.70;99.90;;;;;;2097499;28;20263;-69
2023/11/03 05:22:55;;;;;;;2.63;1.40;;;5.70;99.90;;;;;;2096948;28;20293;-68